Time;durP1;ratioP1;P1;durP2;ratioP2;P2;SDS_P1;SDS_P2;PMS_P1;PMS_P2;Temp;Humidity;BMP_temperature;BMP_pressure;BME280_temperature;BME280_humidity;BME280_pressure;Samples;Min_cycle;Max_cycle;Signal;HPM_P1;HPM_P2
2024/02/17 00:00:04;;;;;;;12.80;9.13;;;14.10;99.90;;;;;;5051084;28;21207;-81
2024/02/17 00:02:31;;;;;;;12.30;8.80;;;14.10;99.90;;;;;;5036181;28;20603;-81
2024/02/17 00:04:56;;;;;;;12.80;8.50;;;14.10;99.90;;;;;;5053195;28;20594;-79
2024/02/17 00:07:22;;;;;;;10.73;9.63;;;14.10;99.90;;;;;;5042245;28;20940;-80
2024/02/17 00:09:48;;;;;;;11.93;9.37;;;14.00;99.90;;;;;;5045690;28;20673;-80
2024/02/17 00:12:14;;;;;;;11.40;9.43;;;14.00;99.90;;;;;;5070507;28;20525;-81
2024/02/17 00:14:39;;;;;;;14.50;11.20;;;14.00;99.90;;;;;;5044601;28;20184;-81
2024/02/17 00:17:05;;;;;;;11.43;10.23;;;14.00;99.90;;;;;;5051696;28;20214;-79
2024/02/17 00:19:32;;;;;;;13.07;10.57;;;14.00;99.90;;;;;;5070153;28;20207;-79
2024/02/17 00:21:58;;;;;;;10.43;8.67;;;14.00;99.90;;;;;;5056116;28;21382;-76
2024/02/17 00:24:26;;;;;;;13.03;11.50;;;14.00;99.90;;;;;;5060537;28;20583;-77
2024/02/17 00:26:52;;;;;;;15.60;10.73;;;14.00;99.90;;;;;;5059253;28;20989;-76
2024/02/17 00:29:18;;;;;;;13.63;10.70;;;14.00;99.90;;;;;;5059869;28;20744;-75
2024/02/17 00:31:46;;;;;;;16.13;11.00;;;14.00;99.90;;;;;;5062988;28;20515;-75
2024/02/17 00:34:13;;;;;;;13.63;10.27;;;14.00;99.90;;;;;;5035724;28;21176;-75
2024/02/17 00:36:39;;;;;;;12.10;10.80;;;14.00;99.90;;;;;;5052187;28;20600;-74
2024/02/17 00:39:05;;;;;;;14.67;10.27;;;13.90;99.90;;;;;;5051131;28;20737;-74
2024/02/17 00:41:31;;;;;;;12.87;10.10;;;13.90;99.90;;;;;;5051609;28;20176;-74
2024/02/17 00:43:57;;;;;;;15.40;11.00;;;13.90;99.90;;;;;;5051149;28;20678;-74
2024/02/17 00:46:23;;;;;;;14.80;10.27;;;13.90;99.90;;;;;;5017613;28;20673;-74
2024/02/17 00:48:49;;;;;;;14.43;11.87;;;13.90;99.90;;;;;;5068303;28;21116;-74
2024/02/17 00:51:15;;;;;;;16.03;11.40;;;13.90;99.90;;;;;;5069348;28;20175;-75
2024/02/17 00:53:45;;;;;;;14.87;11.43;;;13.90;99.90;;;;;;5052211;28;20180;-75
2024/02/17 00:56:14;;;;;;;11.80;10.60;;;13.90;99.90;;;;;;5070188;28;20913;-74
2024/02/17 00:58:40;;;;;;;13.83;11.20;;;13.80;99.90;;;;;;5034898;28;20638;-74
2024/02/17 01:01:06;;;;;;;12.90;10.77;;;13.80;99.90;;;;;;5032777;28;20596;-74
2024/02/17 01:03:32;;;;;;;16.63;12.90;;;13.80;99.90;;;;;;5019665;28;20586;-75
2024/02/17 01:05:58;;;;;;;14.40;12.00;;;13.80;99.90;;;;;;5047184;28;20601;-76
2024/02/17 01:08:23;;;;;;;12.63;10.93;;;13.80;99.90;;;;;;5062511;28;20216;-74
2024/02/17 01:10:50;;;;;;;15.30;11.03;;;13.80;99.90;;;;;;5018913;28;20177;-73
2024/02/17 01:13:16;;;;;;;17.43;12.60;;;13.80;99.90;;;;;;5035009;28;20211;-74
2024/02/17 01:15:42;;;;;;;17.83;12.03;;;13.80;99.90;;;;;;5051822;28;20622;-73
2024/02/17 01:18:08;;;;;;;16.47;13.13;;;13.70;99.90;;;;;;5033927;28;20590;-74
2024/02/17 01:20:41;;;;;;;14.30;10.43;;;13.70;99.90;;;;;;5051238;28;20177;-74
2024/02/17 01:23:07;;;;;;;14.90;11.87;;;13.70;99.90;;;;;;5018625;28;20180;-75
2024/02/17 01:25:33;;;;;;;20.43;14.03;;;13.70;99.90;;;;;;5069660;28;20605;-75
2024/02/17 01:27:59;;;;;;;15.50;12.00;;;13.70;99.90;;;;;;5072489;28;20172;-75
2024/02/17 01:30:24;;;;;;;17.27;13.77;;;13.70;99.90;;;;;;5073319;28;20172;-75
2024/02/17 01:32:50;;;;;;;15.90;12.20;;;13.70;99.90;;;;;;5038502;28;20175;-75
2024/02/17 01:35:16;;;;;;;19.30;11.93;;;13.70;99.90;;;;;;5055746;28;20255;-75
2024/02/17 01:37:41;;;;;;;18.37;13.03;;;13.70;99.90;;;;;;5072959;28;20169;-75
2024/02/17 01:40:08;;;;;;;14.70;11.50;;;13.70;99.90;;;;;;5055090;28;20216;-75
2024/02/17 01:42:34;;;;;;;17.30;13.43;;;13.70;99.90;;;;;;5073344;28;20164;-79
2024/02/17 01:45:00;;;;;;;16.07;13.53;;;13.70;99.90;;;;;;5038590;28;20685;-79
2024/02/17 01:47:26;;;;;;;14.32;10.90;;;13.70;99.90;;;;;;5072451;28;20578;-79
2024/02/17 01:49:53;;;;;;;15.03;11.83;;;13.70;99.90;;;;;;5055034;28;20597;-79
2024/02/17 01:52:19;;;;;;;17.27;12.17;;;13.80;99.90;;;;;;5034339;28;20602;-79
2024/02/17 01:54:46;;;;;;;19.10;13.00;;;13.70;99.90;;;;;;5069399;28;21221;-79
2024/02/17 01:57:12;;;;;;;18.67;12.00;;;13.70;99.90;;;;;;5054396;28;20582;-79
2024/02/17 01:59:39;;;;;;;17.10;12.60;;;13.70;99.90;;;;;;5048292;28;20692;-78
2024/02/17 02:02:05;;;;;;;17.97;12.63;;;13.70;99.90;;;;;;5069262;28;20595;-79
2024/02/17 02:04:31;;;;;;;16.60;12.63;;;13.70;99.90;;;;;;5031206;28;20651;-79
2024/02/17 02:06:57;;;;;;;16.13;11.87;;;13.70;99.90;;;;;;5051672;28;20591;-79
2024/02/17 02:09:25;;;;;;;19.97;13.17;;;13.60;99.90;;;;;;5067470;28;20299;-79
2024/02/17 02:11:51;;;;;;;18.13;12.13;;;13.60;99.90;;;;;;5070457;28;20172;-80
2024/02/17 02:14:19;;;;;;;16.40;12.33;;;13.60;99.90;;;;;;5057261;28;20601;-80
2024/02/17 02:16:48;;;;;;;19.27;12.80;;;13.50;99.90;;;;;;5066082;28;20598;-79
2024/02/17 02:19:14;;;;;;;17.13;12.10;;;13.50;99.90;;;;;;5046169;28;20681;-79
2024/02/17 02:21:41;;;;;;;15.70;11.40;;;13.50;99.90;;;;;;5072929;28;20625;-79
2024/02/17 02:24:11;;;;;;;17.00;12.50;;;13.50;99.90;;;;;;5073215;28;20639;-79
2024/02/17 02:26:37;;;;;;;15.73;12.70;;;13.50;99.90;;;;;;5055292;28;20590;-79
2024/02/17 02:29:03;;;;;;;15.93;12.20;;;13.40;99.90;;;;;;5062998;28;20621;-79
2024/02/17 02:31:32;;;;;;;15.43;11.50;;;13.40;99.90;;;;;;5055904;28;20549;-79
2024/02/17 02:33:58;;;;;;;19.57;12.83;;;13.40;99.90;;;;;;5056240;28;20629;-79
2024/02/17 02:36:24;;;;;;;13.27;11.83;;;13.40;99.90;;;;;;5052163;28;20587;-79
2024/02/17 02:38:51;;;;;;;15.83;11.60;;;13.40;99.90;;;;;;5044692;28;21223;-79
2024/02/17 02:41:17;;;;;;;15.03;11.10;;;13.50;99.90;;;;;;5056057;28;20692;-79
2024/02/17 02:43:43;;;;;;;19.90;11.77;;;13.50;99.90;;;;;;5037912;28;21040;-79
2024/02/17 02:46:09;;;;;;;15.37;10.80;;;13.40;99.90;;;;;;5070740;28;20180;-79
2024/02/17 02:48:35;;;;;;;13.40;11.10;;;13.50;99.90;;;;;;5048117;28;20615;-79
2024/02/17 02:51:01;;;;;;;14.03;10.03;;;13.40;99.90;;;;;;5051954;28;21218;-79
2024/02/17 02:53:27;;;;;;;15.90;11.10;;;13.40;99.90;;;;;;5054033;28;20176;-79
2024/02/17 02:55:53;;;;;;;16.63;11.90;;;13.40;99.90;;;;;;5037550;28;21201;-79
2024/02/17 02:58:19;;;;;;;15.57;9.97;;;13.40;99.90;;;;;;5071441;28;20202;-79
2024/02/17 03:00:45;;;;;;;16.60;11.20;;;13.40;99.90;;;;;;5071816;28;20995;-79
2024/02/17 03:03:11;;;;;;;10.30;8.77;;;13.40;99.90;;;;;;5043247;28;20561;-79
2024/02/17 03:05:37;;;;;;;15.47;9.93;;;13.40;99.90;;;;;;5053855;28;20585;-79
2024/02/17 03:08:04;;;;;;;17.40;11.37;;;13.40;99.90;;;;;;5070910;28;20187;-79
2024/02/17 03:10:29;;;;;;;14.23;10.83;;;13.40;99.90;;;;;;5063552;28;20519;-79
2024/02/17 03:12:59;;;;;;;16.17;11.57;;;13.40;99.90;;;;;;5053805;28;20693;-79
2024/02/17 03:15:24;;;;;;;9.83;8.77;;;13.40;99.90;;;;;;5043958;28;20675;-79
2024/02/17 03:17:53;;;;;;;16.47;10.77;;;13.40;99.90;;;;;;5054789;28;20622;-79
2024/02/17 03:20:20;;;;;;;15.30;9.70;;;13.40;99.90;;;;;;5050107;28;20204;-79
2024/02/17 03:22:45;;;;;;;15.07;9.33;;;13.40;99.90;;;;;;5066805;28;20651;-79
2024/02/17 03:25:12;;;;;;;15.07;9.37;;;13.40;99.90;;;;;;5071373;28;20575;-79
2024/02/17 03:27:39;;;;;;;13.40;10.10;;;13.30;99.90;;;;;;5052903;28;20184;-79
2024/02/17 03:30:05;;;;;;;11.67;9.33;;;13.40;99.90;;;;;;5044780;28;20634;-79
2024/02/17 03:32:32;;;;;;;16.20;10.00;;;13.30;99.90;;;;;;5071226;28;20582;-79
2024/02/17 03:34:58;;;;;;;14.27;9.50;;;13.30;99.90;;;;;;5070957;28;21015;-79
2024/02/17 03:37:25;;;;;;;15.23;10.70;;;13.30;99.90;;;;;;5070825;28;20176;-79
2024/02/17 03:39:51;;;;;;;12.13;8.23;;;13.30;99.90;;;;;;5071185;28;21222;-79
2024/02/17 03:42:17;;;;;;;13.93;8.67;;;13.30;99.90;;;;;;5053014;28;20579;-78
2024/02/17 03:44:43;;;;;;;12.07;8.67;;;13.30;99.90;;;;;;5036432;28;20621;-79
2024/02/17 03:47:11;;;;;;;12.10;9.40;;;13.30;99.90;;;;;;5053036;28;20766;-79
2024/02/17 03:49:37;;;;;;;13.90;8.77;;;13.30;99.90;;;;;;5052269;28;20729;-79
2024/02/17 03:52:03;;;;;;;13.40;8.80;;;13.30;99.90;;;;;;5070822;28;20579;-79
2024/02/17 03:54:29;;;;;;;9.10;7.20;;;13.40;99.90;;;;;;5053235;28;20583;-79
2024/02/17 03:56:55;;;;;;;11.27;7.90;;;13.40;99.90;;;;;;5070292;28;20701;-79
2024/02/17 03:59:20;;;;;;;15.80;9.73;;;13.40;99.90;;;;;;5066773;28;20527;-79
2024/02/17 04:01:47;;;;;;;13.40;8.53;;;13.40;99.90;;;;;;5029462;28;20220;-79
2024/02/17 04:04:12;;;;;;;9.77;7.93;;;13.40;99.90;;;;;;5050124;28;20207;-79
2024/02/17 04:06:38;;;;;;;13.07;9.83;;;13.40;99.90;;;;;;5052472;28;21062;-79
2024/02/17 04:09:06;;;;;;;9.80;8.37;;;13.40;99.90;;;;;;5051542;28;20600;-79
2024/02/17 04:11:32;;;;;;;14.53;8.90;;;13.40;99.90;;;;;;5044660;28;20217;-79
2024/02/17 04:13:58;;;;;;;14.10;7.90;;;13.30;99.90;;;;;;5035991;28;20583;-79
2024/02/17 04:16:27;;;;;;;13.03;7.30;;;13.30;99.90;;;;;;5070647;28;20172;-79
2024/02/17 04:18:53;;;;;;;10.57;6.93;;;13.30;99.90;;;;;;5051954;28;20758;-79
2024/02/17 04:21:18;;;;;;;12.10;7.67;;;13.30;99.90;;;;;;5052433;28;21378;-79
2024/02/17 04:23:44;;;;;;;10.80;7.73;;;13.30;99.90;;;;;;5070655;28;20630;-79
2024/02/17 04:26:11;;;;;;;11.23;7.60;;;13.30;99.90;;;;;;5044463;28;20199;-79
2024/02/17 04:28:39;;;;;;;12.87;8.23;;;13.30;99.90;;;;;;5051627;28;20214;-79
2024/02/17 04:31:07;;;;;;;12.43;7.80;;;13.30;99.90;;;;;;5070494;28;21032;-79
2024/02/17 04:33:39;;;;;;;10.43;8.00;;;13.30;99.90;;;;;;5052686;28;21135;-79
2024/02/17 04:36:06;;;;;;;12.60;7.57;;;13.30;99.90;;;;;;5070473;28;20653;-79
2024/02/17 04:38:31;;;;;;;12.77;7.87;;;13.30;99.90;;;;;;5051847;28;21006;-79
2024/02/17 04:40:57;;;;;;;10.37;6.27;;;13.20;99.90;;;;;;5070299;28;20593;-79
2024/02/17 04:43:23;;;;;;;11.90;8.23;;;13.20;99.90;;;;;;5052520;28;20172;-79
2024/02/17 04:45:49;;;;;;;8.33;7.40;;;13.20;99.90;;;;;;5070592;28;20179;-79
2024/02/17 04:48:15;;;;;;;13.67;7.63;;;13.20;99.90;;;;;;5069680;28;20172;-79
2024/02/17 04:50:41;;;;;;;10.30;7.90;;;13.20;99.90;;;;;;5070457;28;20636;-79
2024/02/17 04:53:07;;;;;;;11.97;8.23;;;13.20;99.90;;;;;;5052902;28;21143;-79
2024/02/17 04:55:33;;;;;;;10.60;8.03;;;13.20;99.90;;;;;;5052170;28;20587;-79
2024/02/17 04:57:59;;;;;;;10.60;7.93;;;13.20;99.90;;;;;;5069618;28;20224;-79
2024/02/17 05:00:24;;;;;;;11.90;8.20;;;13.20;99.90;;;;;;5071451;28;20282;-79
2024/02/17 05:02:50;;;;;;;14.37;9.53;;;13.20;99.90;;;;;;5056040;28;20596;-79
2024/02/17 05:05:16;;;;;;;15.57;9.40;;;13.10;99.90;;;;;;5068076;28;20187;-79
2024/02/17 05:07:48;;;;;;;12.37;8.83;;;13.10;99.90;;;;;;5073644;28;20257;-80
2024/02/17 05:10:14;;;;;;;12.57;8.70;;;13.10;99.90;;;;;;5055534;28;20642;-80
2024/02/17 05:12:40;;;;;;;12.77;9.03;;;13.10;99.90;;;;;;5050470;28;21171;-80
2024/02/17 05:15:07;;;;;;;16.50;8.70;;;13.10;99.90;;;;;;5070891;28;20189;-80
2024/02/17 05:17:33;;;;;;;12.80;8.67;;;13.10;99.90;;;;;;5055630;28;20271;-80
2024/02/17 05:19:59;;;;;;;11.23;8.43;;;13.10;99.90;;;;;;5073915;28;21262;-80
2024/02/17 05:22:24;;;;;;;9.17;8.27;;;13.10;99.90;;;;;;5071978;28;20589;-79
2024/02/17 05:24:51;;;;;;;12.33;9.43;;;13.10;99.90;;;;;;5055675;28;20169;-80
2024/02/17 05:27:17;;;;;;;12.40;9.33;;;13.10;99.90;;;;;;5055543;28;20514;-79
2024/02/17 05:29:43;;;;;;;10.50;8.23;;;13.10;99.90;;;;;;5055408;28;20632;-79
2024/02/17 05:32:09;;;;;;;11.77;9.50;;;13.10;99.90;;;;;;5065327;28;21144;-78
2024/02/17 05:34:35;;;;;;;13.43;10.67;;;13.10;99.90;;;;;;5073952;28;20608;-78
2024/02/17 05:37:03;;;;;;;10.63;8.57;;;13.10;99.90;;;;;;5073888;28;20188;-79
2024/02/17 05:39:31;;;;;;;13.50;9.67;;;13.10;99.90;;;;;;5073501;28;20617;-81
2024/02/17 05:41:57;;;;;;;15.30;10.13;;;13.10;99.90;;;;;;5074760;28;20640;-79
2024/02/17 05:44:22;;;;;;;13.30;9.93;;;13.10;99.90;;;;;;5071938;28;20591;-79
2024/02/17 05:46:48;;;;;;;11.43;9.10;;;13.10;99.90;;;;;;5053467;28;21132;-78
2024/02/17 05:49:14;;;;;;;12.87;9.63;;;13.10;99.90;;;;;;5061857;28;20642;-78
2024/02/17 05:51:40;;;;;;;16.23;9.10;;;13.10;99.90;;;;;;5073619;28;20210;-79
2024/02/17 05:54:05;;;;;;;13.07;8.67;;;13.10;99.90;;;;;;5055356;28;20356;-79
2024/02/17 05:56:32;;;;;;;11.93;8.90;;;13.10;99.90;;;;;;5073497;28;20636;-79
2024/02/17 05:58:57;;;;;;;10.93;8.60;;;13.10;99.90;;;;;;5072647;28;20218;-78
2024/02/17 06:01:23;;;;;;;12.27;9.30;;;13.10;99.90;;;;;;5055337;28;20590;-79
2024/02/17 06:03:49;;;;;;;11.40;8.70;;;13.10;99.90;;;;;;5055646;28;20284;-78
2024/02/17 06:06:14;;;;;;;11.30;9.60;;;13.00;99.90;;;;;;5072904;28;20172;-78
2024/02/17 06:08:42;;;;;;;12.70;10.00;;;13.00;99.90;;;;;;5047553;28;20204;-79
2024/02/17 06:11:07;;;;;;;11.47;9.27;;;13.00;99.90;;;;;;5047129;28;20226;-78
2024/02/17 06:13:33;;;;;;;12.00;9.40;;;13.00;99.90;;;;;;5072322;28;20583;-78
2024/02/17 06:15:59;;;;;;;11.70;10.50;;;13.00;99.90;;;;;;5073111;28;20585;-78
2024/02/17 06:21:18;;;;;;;12.77;9.73;;;13.00;99.90;;;;;;5072605;28;20184;-79
2024/02/17 06:23:44;;;;;;;10.60;9.03;;;13.00;99.90;;;;;;5072953;28;20578;-79
2024/02/17 06:26:19;;;;;;;13.25;9.23;;;13.00;99.90;;;;;;5072470;28;20677;-78
2024/02/17 06:28:45;;;;;;;11.97;10.10;;;13.00;99.90;;;;;;5048564;28;20302;-79
2024/02/17 06:31:10;;;;;;;15.07;9.03;;;13.00;99.90;;;;;;5053621;28;20678;-79
2024/02/17 06:33:36;;;;;;;13.97;10.80;;;13.00;99.90;;;;;;5055161;28;20180;-79
2024/02/17 06:36:02;;;;;;;13.57;9.50;;;13.00;99.90;;;;;;5047143;28;20642;-79
2024/02/17 06:38:27;;;;;;;10.80;8.60;;;13.10;99.90;;;;;;5053422;28;20560;-79
2024/02/17 06:40:53;;;;;;;10.00;9.07;;;13.10;99.90;;;;;;5072611;28;20207;-79
2024/02/17 06:43:19;;;;;;;13.67;10.97;;;13.00;99.90;;;;;;5072693;28;20262;-79
2024/02/17 06:45:45;;;;;;;15.97;9.50;;;13.00;99.90;;;;;;5054837;28;20172;-79
2024/02/17 06:48:11;;;;;;;11.83;9.03;;;13.00;99.90;;;;;;5052346;28;20591;-79
2024/02/17 06:50:37;;;;;;;11.30;9.23;;;13.00;99.90;;;;;;5056693;28;20598;-80
2024/02/17 06:53:03;;;;;;;12.37;9.60;;;13.10;99.90;;;;;;5064752;28;20587;-79
2024/02/17 06:55:29;;;;;;;16.00;9.60;;;13.10;99.90;;;;;;5055623;28;20601;-78
2024/02/17 06:57:54;;;;;;;15.10;8.70;;;13.10;99.90;;;;;;5056629;28;21216;-78
2024/02/17 07:00:21;;;;;;;15.60;9.43;;;13.10;99.90;;;;;;5057638;28;20204;-79
2024/02/17 07:02:47;;;;;;;14.80;10.32;;;13.10;99.90;;;;;;5058555;28;20265;-79
2024/02/17 07:05:14;;;;;;;15.80;10.47;;;13.10;99.90;;;;;;5075502;28;20180;-79
2024/02/17 07:07:40;;;;;;;10.90;9.80;;;13.10;99.90;;;;;;5058224;28;20203;-78
2024/02/17 07:10:07;;;;;;;11.20;9.83;;;13.10;99.90;;;;;;5064282;28;21049;-79
2024/02/17 07:12:34;;;;;;;10.30;8.70;;;13.10;99.90;;;;;;5046797;28;20259;-79
2024/02/17 07:15:00;;;;;;;13.10;9.40;;;13.10;99.90;;;;;;5056396;28;20683;-79
2024/02/17 07:17:26;;;;;;;13.10;9.13;;;13.10;99.90;;;;;;5054283;28;20610;-78
2024/02/17 07:19:52;;;;;;;18.13;10.20;;;13.10;99.90;;;;;;5071442;28;20630;-78
2024/02/17 07:22:18;;;;;;;11.43;10.20;;;13.10;99.90;;;;;;5054237;28;20226;-78
2024/02/17 07:24:43;;;;;;;14.20;8.27;;;13.10;99.90;;;;;;5066383;28;20199;-78
2024/02/17 07:27:10;;;;;;;14.63;9.50;;;13.20;99.90;;;;;;5045539;28;20173;-78
2024/02/17 07:29:37;;;;;;;12.90;9.57;;;13.20;99.90;;;;;;5063099;28;20196;-78
2024/02/17 07:32:04;;;;;;;13.43;9.77;;;13.20;99.90;;;;;;5045635;28;20603;-78
2024/02/17 07:34:32;;;;;;;13.20;10.00;;;13.20;99.90;;;;;;5062518;28;21144;-78
2024/02/17 07:36:58;;;;;;;10.50;8.67;;;13.20;99.90;;;;;;5028933;28;20643;-79
2024/02/17 07:39:25;;;;;;;12.67;8.90;;;13.20;99.90;;;;;;5048933;28;20729;-78
2024/02/17 07:41:51;;;;;;;9.60;8.10;;;13.20;99.90;;;;;;5064648;28;20598;-78
2024/02/17 07:44:24;;;;;;;12.88;9.25;;;13.20;99.90;;;;;;5068787;28;20780;-78
2024/02/17 07:46:50;;;;;;;15.00;10.13;;;13.30;99.90;;;;;;5067001;28;20520;-78
2024/02/17 07:49:19;;;;;;;12.87;8.60;;;13.30;99.90;;;;;;5055778;28;20189;-78
2024/02/17 07:51:47;;;;;;;15.50;10.13;;;13.30;99.90;;;;;;5048340;28;20583;-79
2024/02/17 07:54:13;;;;;;;13.67;9.43;;;13.30;99.90;;;;;;5046285;28;20595;-78
2024/02/17 07:56:40;;;;;;;10.17;8.93;;;13.40;99.90;;;;;;5040268;28;20587;-78
2024/02/17 07:59:06;;;;;;;12.43;8.80;;;13.40;99.90;;;;;;5038380;28;20224;-79
2024/02/17 08:01:32;;;;;;;12.63;8.90;;;13.40;99.90;;;;;;5045387;28;20646;-78
2024/02/17 08:03:58;;;;;;;13.10;8.90;;;13.30;99.90;;;;;;5074787;28;20640;-81
2024/02/17 08:06:23;;;;;;;11.07;8.70;;;13.40;99.90;;;;;;5048790;28;20185;-79
2024/02/17 08:08:50;;;;;;;13.90;9.80;;;13.40;99.90;;;;;;5079976;28;20199;-79
2024/02/17 08:11:16;;;;;;;13.50;9.50;;;13.40;99.90;;;;;;5046297;28;21012;-79
2024/02/17 08:13:42;;;;;;;14.93;8.10;;;13.40;99.90;;;;;;5042753;28;20631;-79
2024/02/17 08:16:11;;;;;;;12.13;8.87;;;13.50;99.90;;;;;;5034792;28;21074;-79
2024/02/17 08:18:41;;;;;;;15.17;9.07;;;13.50;99.90;;;;;;5041344;28;20642;-79
2024/02/17 08:21:07;;;;;;;11.43;8.17;;;13.50;99.90;;;;;;5039130;28;20593;-80
2024/02/17 08:23:33;;;;;;;12.70;7.70;;;13.50;99.90;;;;;;5039501;28;20726;-80
2024/02/17 08:26:00;;;;;;;10.90;7.13;;;13.60;99.90;;;;;;5042185;28;20629;-80
2024/02/17 08:28:27;;;;;;;13.57;7.90;;;13.60;99.90;;;;;;5037288;28;20560;-80
2024/02/17 08:30:53;;;;;;;8.73;7.20;;;13.60;99.90;;;;;;5061433;28;20581;-80
2024/02/17 08:33:19;;;;;;;13.00;8.00;;;13.60;99.90;;;;;;5041433;28;20630;-80
2024/02/17 08:35:45;;;;;;;14.00;8.50;;;13.60;99.90;;;;;;5049458;28;20593;-80
2024/02/17 08:38:11;;;;;;;10.20;7.63;;;13.70;99.90;;;;;;5048797;28;20647;-79
2024/02/17 08:40:37;;;;;;;12.13;8.03;;;13.70;99.90;;;;;;5033619;28;20576;-79
2024/02/17 08:43:04;;;;;;;15.00;8.07;;;13.70;99.90;;;;;;5082153;28;20646;-78
2024/02/17 08:45:31;;;;;;;8.63;6.83;;;13.80;99.90;;;;;;5044459;28;20178;-80
2024/02/17 08:47:57;;;;;;;15.13;8.67;;;13.90;99.90;;;;;;5042239;28;21024;-78
2024/02/17 08:50:22;;;;;;;10.33;7.17;;;13.90;99.90;;;;;;5041824;28;20691;-76
2024/02/17 08:52:48;;;;;;;9.53;7.60;;;13.90;99.90;;;;;;5086422;28;20615;-78
2024/02/17 08:55:14;;;;;;;12.90;7.13;;;14.00;99.90;;;;;;5037926;28;20210;-78
2024/02/17 08:57:40;;;;;;;8.83;7.77;;;14.00;99.90;;;;;;5027663;28;20596;-76
2024/02/17 09:00:06;;;;;;;14.00;8.77;;;14.00;99.90;;;;;;5025072;28;20319;-77
2024/02/17 09:02:32;;;;;;;11.03;7.83;;;14.00;99.90;;;;;;5023446;28;20219;-75
2024/02/17 09:04:59;;;;;;;11.00;8.10;;;14.10;99.90;;;;;;5022207;28;20585;-75
2024/02/17 09:07:27;;;;;;;10.80;7.90;;;14.10;99.90;;;;;;5036529;28;20268;-76
2024/02/17 09:09:53;;;;;;;9.33;6.90;;;14.20;99.90;;;;;;5022126;28;20614;-76
2024/02/17 09:12:19;;;;;;;13.57;8.57;;;14.20;99.90;;;;;;5024534;28;20680;-76
2024/02/17 09:14:46;;;;;;;14.90;7.30;;;14.20;99.90;;;;;;5022793;28;20592;-76
2024/02/17 09:17:12;;;;;;;16.40;8.03;;;14.30;99.90;;;;;;5054243;28;20936;-76
2024/02/17 09:19:38;;;;;;;12.83;7.70;;;14.30;99.90;;;;;;5023198;28;20608;-76
2024/02/17 09:22:04;;;;;;;9.37;6.40;;;14.30;99.90;;;;;;5025419;28;20182;-76
2024/02/17 09:24:31;;;;;;;12.53;8.40;;;14.30;99.90;;;;;;5024031;28;21001;-75
2024/02/17 09:27:00;;;;;;;10.47;7.30;;;14.40;99.90;;;;;;5022258;28;20182;-76
2024/02/17 09:29:27;;;;;;;13.50;7.40;;;14.40;99.90;;;;;;5023310;28;20611;-75
2024/02/17 09:31:53;;;;;;;15.67;7.10;;;14.40;99.90;;;;;;5054544;28;21119;-75
2024/02/17 09:34:19;;;;;;;9.80;7.33;;;14.50;99.90;;;;;;5023351;28;20647;-76
2024/02/17 09:36:44;;;;;;;10.67;6.47;;;14.50;99.90;;;;;;5023088;28;20186;-76
2024/02/17 09:39:10;;;;;;;9.60;6.30;;;14.50;99.90;;;;;;5021920;28;20227;-76
2024/02/17 09:41:36;;;;;;;11.33;7.30;;;14.50;99.90;;;;;;5055483;28;20188;-75
2024/02/17 09:44:02;;;;;;;11.67;7.03;;;14.50;99.90;;;;;;5022794;28;20671;-75
2024/02/17 09:46:28;;;;;;;12.63;6.90;;;14.50;99.90;;;;;;5019961;28;20983;-76
2024/02/17 09:49:00;;;;;;;7.80;6.23;;;14.50;99.90;;;;;;5018379;28;20609;-76
2024/02/17 09:51:26;;;;;;;15.33;8.10;;;14.50;99.90;;;;;;5020271;28;20185;-75
2024/02/17 09:53:55;;;;;;;10.43;6.50;;;14.50;99.90;;;;;;5021980;28;20599;-75
2024/02/17 09:56:21;;;;;;;13.43;7.80;;;14.40;99.90;;;;;;5050999;28;20643;-75
2024/02/17 09:58:46;;;;;;;13.43;7.73;;;14.40;99.90;;;;;;5054037;28;20620;-75
2024/02/17 10:01:13;;;;;;;11.70;6.77;;;14.40;99.90;;;;;;5054527;28;20592;-75
2024/02/17 10:03:39;;;;;;;10.77;6.23;;;14.40;99.90;;;;;;5020792;28;20316;-75
2024/02/17 10:06:24;;;;;;;16.23;7.63;;;14.40;99.90;;;;;;5053232;28;20594;-75
2024/02/17 10:08:51;;;;;;;11.57;7.20;;;14.40;99.90;;;;;;5021181;28;20608;-75
2024/02/17 10:11:17;;;;;;;13.03;8.60;;;14.40;99.90;;;;;;5019060;28;20624;-76
2024/02/17 10:13:43;;;;;;;10.93;7.77;;;14.40;99.90;;;;;;5019784;28;20584;-76
2024/02/17 10:16:17;;;;;;;10.77;6.53;;;14.40;99.90;;;;;;5019126;28;20186;-76
2024/02/17 10:18:45;;;;;;;9.03;7.03;;;14.40;99.90;;;;;;5049313;28;20607;-77
2024/02/17 10:21:11;;;;;;;13.67;7.57;;;14.40;99.90;;;;;;5052247;28;20601;-76
2024/02/17 10:23:38;;;;;;;12.20;7.30;;;14.40;99.90;;;;;;5020482;28;20776;-77
2024/02/17 10:26:06;;;;;;;9.70;7.00;;;14.40;99.90;;;;;;5061779;28;20708;-77
2024/02/17 10:28:32;;;;;;;10.87;6.87;;;14.50;99.90;;;;;;5065851;28;20629;-78
2024/02/17 10:31:02;;;;;;;16.60;8.53;;;14.50;99.90;;;;;;5071087;28;20576;-77
2024/02/17 10:33:28;;;;;;;10.33;7.70;;;14.50;99.90;;;;;;5076706;28;20680;-77
2024/02/17 10:35:56;;;;;;;14.37;8.50;;;14.50;99.90;;;;;;5042152;28;20576;-77
2024/02/17 10:38:24;;;;;;;13.87;7.40;;;14.50;99.90;;;;;;5028719;28;20616;-77
2024/02/17 10:40:51;;;;;;;9.87;7.50;;;14.50;99.90;;;;;;5041294;28;20592;-77
2024/02/17 10:43:18;;;;;;;19.57;9.80;;;14.60;99.90;;;;;;5033140;28;20705;-75
2024/02/17 10:45:45;;;;;;;10.37;7.73;;;14.60;99.90;;;;;;5035138;28;20576;-76
2024/02/17 10:48:11;;;;;;;16.60;9.13;;;14.70;99.90;;;;;;5041307;28;20574;-76
2024/02/17 10:50:41;;;;;;;11.50;8.73;;;14.70;99.90;;;;;;5043695;28;20608;-77
2024/02/17 10:53:25;;;;;;;16.17;8.77;;;14.80;99.90;;;;;;5027544;28;20585;-76
2024/02/17 10:55:54;;;;;;;8.77;7.30;;;14.80;99.90;;;;;;5025167;28;20615;-76
2024/02/17 10:58:22;;;;;;;13.60;8.63;;;14.90;99.90;;;;;;5024552;28;20589;-75
2024/02/17 11:00:49;;;;;;;11.40;8.57;;;14.90;99.90;;;;;;5026975;28;20592;-76
2024/02/17 11:03:34;;;;;;;15.33;8.93;;;15.00;99.90;;;;;;5021266;28;20633;-76
2024/02/17 11:06:08;;;;;;;11.67;7.80;;;15.00;99.90;;;;;;5028541;28;20951;-76
2024/02/17 11:08:34;;;;;;;14.20;8.60;;;15.00;99.90;;;;;;5020275;28;20682;-76
2024/02/17 11:11:28;;;;;;;14.80;8.20;;;15.10;99.90;;;;;;5021675;28;21074;-75
2024/02/17 11:13:55;;;;;;;9.80;7.77;;;15.10;99.90;;;;;;5018721;28;20648;-75
2024/02/17 11:16:23;;;;;;;17.60;10.40;;;15.10;99.90;;;;;;5021844;28;20576;-76
2024/02/17 11:18:54;;;;;;;16.10;10.00;;;15.10;99.90;;;;;;5053424;28;20629;-76
2024/02/17 11:21:38;;;;;;;17.27;11.50;;;15.10;99.90;;;;;;5021400;28;20580;-76
2024/02/17 11:24:11;;;;;;;12.70;10.30;;;15.10;99.90;;;;;;5022712;28;20663;-75
2024/02/17 11:26:37;;;;;;;13.70;9.97;;;15.20;99.90;;;;;;5024095;28;20619;-76
2024/02/17 11:29:04;;;;;;;14.03;9.30;;;15.20;99.90;;;;;;5022960;28;20620;-76
2024/02/17 11:31:30;;;;;;;12.50;8.37;;;15.20;99.90;;;;;;5022531;28;20590;-76
2024/02/17 11:34:03;;;;;;;9.67;8.43;;;15.20;99.90;;;;;;5027238;28;20624;-75
2024/02/17 11:36:32;;;;;;;9.70;6.83;;;15.20;99.90;;;;;;5019501;28;21233;-75
2024/02/17 11:38:59;;;;;;;10.80;8.27;;;15.30;99.90;;;;;;5022777;28;20644;-77
2024/02/17 11:41:26;;;;;;;13.10;7.83;;;15.30;99.90;;;;;;5026443;28;20932;-76
2024/02/17 11:43:53;;;;;;;8.33;7.23;;;15.30;99.90;;;;;;5023229;28;20687;-77
2024/02/17 11:46:19;;;;;;;10.93;8.07;;;15.30;99.90;;;;;;5018877;28;20676;-77
2024/02/17 11:48:45;;;;;;;12.70;8.13;;;15.30;99.90;;;;;;5028903;28;21359;-77
2024/02/17 11:51:21;;;;;;;10.20;7.67;;;15.30;99.90;;;;;;5024730;28;20292;-77
2024/02/17 11:53:51;;;;;;;15.57;7.63;;;15.30;99.90;;;;;;5029870;28;20596;-76
2024/02/17 11:56:17;;;;;;;11.30;8.30;;;15.40;99.90;;;;;;5030394;28;20603;-75
2024/02/17 11:58:44;;;;;;;11.10;8.40;;;15.40;99.90;;;;;;5030212;28;21152;-77
2024/02/17 12:01:14;;;;;;;11.40;7.80;;;15.40;99.90;;;;;;5055072;28;20597;-77
2024/02/17 12:03:42;;;;;;;14.50;7.90;;;15.40;99.90;;;;;;5027430;28;20640;-78
2024/02/17 12:06:08;;;;;;;10.43;7.20;;;15.40;99.90;;;;;;5030059;28;20576;-78
2024/02/17 12:08:35;;;;;;;11.27;6.70;;;15.40;99.90;;;;;;5029085;28;21195;-78
2024/02/17 12:11:02;;;;;;;12.33;7.63;;;15.40;99.90;;;;;;5027909;28;20173;-77
2024/02/17 12:13:28;;;;;;;11.20;7.97;;;15.40;99.90;;;;;;5029508;28;21130;-78
2024/02/17 12:16:02;;;;;;;10.67;8.43;;;15.40;99.90;;;;;;5029507;28;21186;-77
2024/02/17 12:18:28;;;;;;;11.60;8.10;;;15.40;99.90;;;;;;5029007;28;20623;-78
2024/02/17 12:20:54;;;;;;;9.60;7.87;;;15.40;99.90;;;;;;5024910;28;20584;-78
2024/02/17 12:23:20;;;;;;;11.60;8.13;;;15.50;99.90;;;;;;5028531;28;20299;-78
2024/02/17 12:25:50;;;;;;;16.60;8.40;;;15.50;99.90;;;;;;5031747;28;22371;-77
2024/02/17 12:28:16;;;;;;;13.63;8.83;;;15.60;99.90;;;;;;5028327;28;20189;-77
2024/02/17 12:30:49;;;;;;;10.20;8.13;;;15.70;99.90;;;;;;5030136;28;21147;-77
2024/02/17 12:33:20;;;;;;;12.47;8.43;;;15.70;99.90;;;;;;5032868;28;20204;-77
2024/02/17 12:35:47;;;;;;;15.47;8.17;;;15.70;99.90;;;;;;5031003;28;20675;-77